createdAt,value
2017-11-11T00:00:27.936Z,5.08
2017-11-11T00:02:56.611Z,5.07
2017-11-11T00:05:25.314Z,5.07
2017-11-11T00:07:53.955Z,5.08
2017-11-11T00:10:22.654Z,5.07
2017-11-11T00:12:51.334Z,5.06
2017-11-11T00:15:19.984Z,5.07
2017-11-11T00:17:48.693Z,5.05
2017-11-11T00:20:17.347Z,5.07
2017-11-11T00:22:46.039Z,5.05
2017-11-11T00:25:14.692Z,5.06
2017-11-11T00:27:43.332Z,5.08
2017-11-11T00:30:12.038Z,5.09
2017-11-11T00:32:40.668Z,5.07
2017-11-11T00:35:09.345Z,5.04
2017-11-11T00:37:38.031Z,5.02
2017-11-11T00:40:07.008Z,5.04
2017-11-11T00:42:35.664Z,5.00
2017-11-11T00:45:04.161Z,5.06
2017-11-11T00:47:32.896Z,5.04
2017-11-11T00:50:01.549Z,5.09
2017-11-11T00:52:30.728Z,5.11
2017-11-11T00:54:59.359Z,5.11
2017-11-11T00:57:28.605Z,5.11
2017-11-11T00:59:57.365Z,5.09
2017-11-11T01:02:26.054Z,5.11
2017-11-11T01:04:56.198Z,5.12
2017-11-11T01:07:24.991Z,5.15
2017-11-11T01:09:53.643Z,5.15
2017-11-11T01:12:22.028Z,5.12
2017-11-11T01:14:50.715Z,5.17
2017-11-11T01:17:19.358Z,5.19
2017-11-11T01:19:48.006Z,5.18
2017-11-11T01:22:16.703Z,5.19
2017-11-11T01:24:45.364Z,5.17
2017-11-11T01:27:13.994Z,5.20
2017-11-11T01:29:42.706Z,5.22
2017-11-11T01:32:11.359Z,5.23
2017-11-11T01:34:40.004Z,5.23
2017-11-11T01:37:09.563Z,5.22
2017-11-11T01:39:38.227Z,5.25
2017-11-11T01:42:06.892Z,5.27
2017-11-11T01:44:35.603Z,5.28
2017-11-11T01:47:08.232Z,5.26
2017-11-11T01:49:36.870Z,5.19
2017-11-11T01:52:05.515Z,5.16
2017-11-11T01:54:34.208Z,5.17
2017-11-11T01:57:02.840Z,5.17
2017-11-11T01:59:31.531Z,5.17
2017-11-11T02:01:59.886Z,5.15
2017-11-11T02:04:28.624Z,5.16
2017-11-11T02:06:57.299Z,5.14
2017-11-11T02:09:25.965Z,5.17
2017-11-11T02:11:54.672Z,5.18
2017-11-11T02:14:23.338Z,5.18
2017-11-11T02:16:52.087Z,5.18
2017-11-11T02:19:20.454Z,5.16
2017-11-11T02:21:49.140Z,5.17
2017-11-11T02:24:17.870Z,5.17
2017-11-11T02:26:46.252Z,5.18
2017-11-11T02:29:14.606Z,5.16
2017-11-11T02:31:43.338Z,5.17
2017-11-11T02:34:13.023Z,5.21
2017-11-11T02:36:41.404Z,5.21
2017-11-11T02:39:10.134Z,5.21
2017-11-11T02:41:38.869Z,5.20
2017-11-11T02:44:07.589Z,5.18
2017-11-11T02:46:35.965Z,5.16
2017-11-11T02:49:04.658Z,5.13
2017-11-11T02:51:33.067Z,5.12
2017-11-11T02:54:01.725Z,5.13
2017-11-11T02:56:30.367Z,5.12
2017-11-11T02:58:59.075Z,5.15
2017-11-11T03:01:27.727Z,5.13
2017-11-11T03:03:56.443Z,5.12
2017-11-11T03:06:25.112Z,5.12
2017-11-11T03:08:53.814Z,5.13
2017-11-11T03:11:22.504Z,5.14
2017-11-11T03:13:51.177Z,5.15
2017-11-11T03:16:19.857Z,5.21
2017-11-11T03:18:48.544Z,5.22
2017-11-11T03:21:17.220Z,5.24
2017-11-11T03:23:45.930Z,5.26
2017-11-11T03:26:14.601Z,5.26
2017-11-11T03:28:43.248Z,5.30
2017-11-11T03:31:11.937Z,5.31
2017-11-11T03:33:40.572Z,5.33
2017-11-11T03:36:09.307Z,5.34
2017-11-11T03:38:38.112Z,5.34
2017-11-11T03:41:06.758Z,5.35
2017-11-11T03:43:35.467Z,5.31
2017-11-11T03:46:04.169Z,5.34
2017-11-11T03:48:32.851Z,5.35
2017-11-11T03:51:01.798Z,5.37
2017-11-11T03:53:30.502Z,5.34
2017-11-11T03:55:59.177Z,5.37
2017-11-11T03:58:27.840Z,5.38
2017-11-11T04:00:56.591Z,5.37
2017-11-11T04:03:25.222Z,5.37
2017-11-11T04:05:53.891Z,5.40
2017-11-11T04:08:23.779Z,5.39
2017-11-11T04:10:52.481Z,5.38
2017-11-11T04:13:21.121Z,5.37
2017-11-11T04:15:49.775Z,5.36
2017-11-11T04:18:18.464Z,5.36
2017-11-11T04:20:47.104Z,5.35
2017-11-11T04:23:15.780Z,5.37
2017-11-11T04:25:44.418Z,5.35
2017-11-11T04:28:13.116Z,5.37
2017-11-11T04:30:41.786Z,5.34
2017-11-11T04:33:10.672Z,5.34
2017-11-11T04:35:39.320Z,5.33
2017-11-11T04:38:07.983Z,5.33
2017-11-11T04:40:36.681Z,5.31
2017-11-11T04:43:05.416Z,5.30
2017-11-11T04:45:34.122Z,5.30
2017-11-11T04:48:02.793Z,5.28
2017-11-11T04:50:31.339Z,5.27
2017-11-11T04:53:00.043Z,5.27
2017-11-11T04:55:29.129Z,5.27
2017-11-11T04:57:57.768Z,5.24
2017-11-11T05:00:26.443Z,5.23
2017-11-11T05:02:55.147Z,5.22
2017-11-11T05:05:23.790Z,5.22
2017-11-11T05:07:52.427Z,5.21
2017-11-11T05:10:21.122Z,5.19
2017-11-11T05:12:49.784Z,5.15
2017-11-11T05:15:18.488Z,5.17
2017-11-11T05:17:47.136Z,5.18
2017-11-11T05:20:15.659Z,5.14
2017-11-11T05:22:44.346Z,5.11
2017-11-11T05:25:13.167Z,5.13
2017-11-11T05:27:41.851Z,5.17
2017-11-11T05:30:10.494Z,5.20
2017-11-11T05:32:38.984Z,5.22
2017-11-11T05:35:07.887Z,5.18
2017-11-11T05:37:36.551Z,5.21
2017-11-11T05:40:05.214Z,5.21
2017-11-11T05:42:33.891Z,5.21
2017-11-11T05:45:02.555Z,5.23
2017-11-11T05:47:31.259Z,5.24
2017-11-11T05:49:59.896Z,5.23
2017-11-11T05:52:28.244Z,5.24
2017-11-11T05:54:56.923Z,5.23
2017-11-11T05:57:25.574Z,5.25
2017-11-11T05:59:54.267Z,5.25
2017-11-11T06:02:22.957Z,5.25
2017-11-11T06:04:51.983Z,5.27
2017-11-11T06:07:22.728Z,5.27
2017-11-11T06:09:52.579Z,5.28
2017-11-11T06:12:22.260Z,5.29
2017-11-11T06:14:51.153Z,5.26
2017-11-11T06:17:19.989Z,5.29
2017-11-11T06:19:48.672Z,5.31
2017-11-11T06:22:17.382Z,5.29
2017-11-11T06:24:46.086Z,5.32
2017-11-11T06:27:14.738Z,5.32
2017-11-11T06:29:43.693Z,5.29
2017-11-11T06:32:12.772Z,5.30
2017-11-11T06:34:43.980Z,5.25
2017-11-11T06:37:12.670Z,5.27
2017-11-11T06:39:41.314Z,5.23
2017-11-11T06:42:10.168Z,5.24
2017-11-11T06:44:41.248Z,5.19
2017-11-11T06:47:11.940Z,5.20
2017-11-11T06:49:40.821Z,5.25
2017-11-11T06:52:11.042Z,5.26
2017-11-11T06:54:39.713Z,5.28
2017-11-11T06:57:08.446Z,5.27
2017-11-11T06:59:37.124Z,5.24
2017-11-11T07:02:07.211Z,5.27
2017-11-11T07:04:39.576Z,5.28
2017-11-11T07:07:10.280Z,5.24
2017-11-11T07:09:39.262Z,5.19
2017-11-11T07:12:08.165Z,5.21
2017-11-11T07:14:36.836Z,5.19
2017-11-11T07:17:08.475Z,5.20
2017-11-11T07:19:37.163Z,5.18
2017-11-11T07:22:05.863Z,5.20
2017-11-11T07:24:34.559Z,5.16
2017-11-11T07:27:05.823Z,5.16
2017-11-11T07:29:34.512Z,5.16
2017-11-11T07:32:03.146Z,5.19
2017-11-11T07:34:36.679Z,5.22
2017-11-11T07:37:08.651Z,5.20
2017-11-11T07:39:37.305Z,5.23
2017-11-11T07:42:06.046Z,5.23
2017-11-11T07:44:34.692Z,5.22
2017-11-11T07:47:15.946Z,5.22
2017-11-11T07:49:51.425Z,5.23
2017-11-11T07:52:32.047Z,5.23
2017-11-11T07:55:09.576Z,5.26
2017-11-11T07:57:46.439Z,5.23
2017-11-11T08:00:29.212Z,5.20
2017-11-11T08:03:03.911Z,5.20
2017-11-11T08:05:42.101Z,5.20
2017-11-11T08:08:19.825Z,5.18
2017-11-11T08:10:59.394Z,5.18
2017-11-11T08:13:37.707Z,5.19
2017-11-11T08:16:15.755Z,5.17
2017-11-11T08:18:57.794Z,5.17
2017-11-11T08:21:38.989Z,5.16
2017-11-11T08:24:16.829Z,5.18
2017-11-11T08:26:50.765Z,5.22
2017-11-11T08:29:25.895Z,5.21
2017-11-11T08:32:01.941Z,5.25
2017-11-11T08:34:37.877Z,5.24
2017-11-11T08:37:13.946Z,5.26
2017-11-11T08:39:47.673Z,5.26
2017-11-11T08:42:25.675Z,5.27
2017-11-11T08:45:06.078Z,5.29
2017-11-11T08:47:47.040Z,5.31
2017-11-11T08:50:22.849Z,5.34
2017-11-11T08:53:04.307Z,5.34
2017-11-11T08:55:42.472Z,5.36
2017-11-11T08:58:21.130Z,5.35
2017-11-11T09:00:58.860Z,5.35
2017-11-11T09:03:37.935Z,5.37
2017-11-11T09:06:14.959Z,5.40
2017-11-11T09:08:52.157Z,5.40
2017-11-11T09:11:26.828Z,5.40
2017-11-11T09:14:06.863Z,5.42
2017-11-11T09:16:36.460Z,5.44
2017-11-11T09:19:05.569Z,5.43
2017-11-11T09:21:40.875Z,5.45
2017-11-11T09:24:17.467Z,5.46
2017-11-11T09:26:55.751Z,5.48
2017-11-11T09:32:15.576Z,5.49
2017-11-11T09:34:51.956Z,5.49
2017-11-11T09:37:26.623Z,5.51
2017-11-11T09:40:05.552Z,5.51
2017-11-11T09:42:47.282Z,5.54
2017-11-11T09:45:22.922Z,5.55
2017-11-11T09:48:02.180Z,5.54
2017-11-11T09:50:42.369Z,5.53
2017-11-11T09:53:19.554Z,5.54
2017-11-11T09:55:57.975Z,5.59
2017-11-11T09:58:35.153Z,5.61
2017-11-11T10:01:16.872Z,5.62
2017-11-11T10:03:53.527Z,5.64
2017-11-11T10:06:32.949Z,5.65
2017-11-11T10:09:11.268Z,5.66
2017-11-11T10:11:43.549Z,5.69
2017-11-11T10:14:21.549Z,5.71
2017-11-11T10:17:01.797Z,5.73
2017-11-11T10:19:42.149Z,5.77
2017-11-11T10:22:25.568Z,5.78
2017-11-11T10:25:05.419Z,5.80
2017-11-11T10:27:39.603Z,5.82
2017-11-11T10:30:21.450Z,5.83
2017-11-11T10:32:59.897Z,5.86
2017-11-11T10:35:37.180Z,5.86
2017-11-11T10:38:14.175Z,5.90
2017-11-11T10:40:55.466Z,5.91
2017-11-11T10:43:34.624Z,5.91
2017-11-11T10:46:11.731Z,5.91
2017-11-11T10:48:43.687Z,5.94
2017-11-11T10:51:16.293Z,5.96
2017-11-11T10:53:45.461Z,5.98
2017-11-11T10:56:14.455Z,5.99
2017-11-11T10:58:43.138Z,6.01
2017-11-11T11:01:19.546Z,6.03
2017-11-11T11:03:52.580Z,6.05
2017-11-11T11:06:22.704Z,6.07
2017-11-11T11:08:51.436Z,6.07
2017-11-11T11:11:20.161Z,6.10
2017-11-11T11:13:49.416Z,6.13
2017-11-11T11:16:18.173Z,6.15
2017-11-11T11:18:46.879Z,6.13
2017-11-11T11:21:15.652Z,6.15
2017-11-11T11:23:44.455Z,6.15
2017-11-11T11:26:12.969Z,6.15
2017-11-11T11:28:41.698Z,6.17
2017-11-11T11:31:10.395Z,6.17
2017-11-11T11:33:39.041Z,6.20
2017-11-11T11:36:07.695Z,6.23
2017-11-11T11:38:36.406Z,6.24
2017-11-11T11:41:05.108Z,6.25
2017-11-11T11:43:33.754Z,6.25
2017-11-11T11:46:02.436Z,6.28
2017-11-11T11:48:31.122Z,6.29
2017-11-11T11:50:59.878Z,6.33
2017-11-11T11:53:34.159Z,6.35
2017-11-11T11:56:03.864Z,6.39
2017-11-11T11:58:32.569Z,6.42
2017-11-11T12:01:07.645Z,6.47
2017-11-11T12:03:36.364Z,6.50
2017-11-11T12:06:05.298Z,6.54
2017-11-11T12:08:34.000Z,6.58
2017-11-11T12:11:02.702Z,6.64
2017-11-11T12:13:31.340Z,6.68
2017-11-11T12:16:02.938Z,6.71
2017-11-11T12:18:31.687Z,6.74
2017-11-11T12:21:00.363Z,6.79
2017-11-11T12:23:29.072Z,6.80
2017-11-11T12:25:57.763Z,6.81
2017-11-11T12:28:26.464Z,6.85
2017-11-11T12:30:55.144Z,6.86
2017-11-11T12:33:27.518Z,6.87
2017-11-11T12:35:56.198Z,6.90
2017-11-11T12:38:24.702Z,6.89
2017-11-11T12:40:53.715Z,6.89
2017-11-11T12:43:25.499Z,6.89
2017-11-11T12:45:54.067Z,6.85
2017-11-11T12:48:22.632Z,6.87
2017-11-11T12:50:51.251Z,6.87
2017-11-11T12:53:24.907Z,6.88
2017-11-11T12:55:53.480Z,6.85
2017-11-11T12:58:21.994Z,6.85
2017-11-11T13:00:50.531Z,6.86
2017-11-11T13:03:23.901Z,6.84
2017-11-11T13:05:52.577Z,6.80
2017-11-11T13:08:21.260Z,6.77
2017-11-11T13:10:49.901Z,6.76
2017-11-11T13:13:21.689Z,6.72
2017-11-11T13:15:50.328Z,6.68
2017-11-11T13:18:18.962Z,6.70
2017-11-11T13:20:47.651Z,6.66
2017-11-11T13:23:16.280Z,6.64
2017-11-11T13:25:44.959Z,6.58
2017-11-11T13:28:13.603Z,6.57
2017-11-11T13:30:42.119Z,6.53
2017-11-11T13:33:10.843Z,6.51
2017-11-11T13:35:39.366Z,6.50
2017-11-11T13:38:08.068Z,6.50
2017-11-11T13:40:36.581Z,6.48
2017-11-11T13:43:05.250Z,6.47
2017-11-11T13:45:33.806Z,6.45
2017-11-11T13:48:02.303Z,6.45
2017-11-11T13:50:31.013Z,6.43
2017-11-11T13:52:59.676Z,6.40
2017-11-11T13:55:28.366Z,6.40
2017-11-11T13:57:57.067Z,6.35
2017-11-11T14:00:25.747Z,6.35
2017-11-11T14:02:54.418Z,6.36
2017-11-11T14:05:23.107Z,6.38
2017-11-11T14:08:05.390Z,6.36
2017-11-11T14:10:34.977Z,6.33
2017-11-11T14:13:03.656Z,6.35
2017-11-11T14:15:32.290Z,6.34
2017-11-11T14:18:00.972Z,6.33
2017-11-11T14:20:29.624Z,6.30
2017-11-11T14:22:58.320Z,6.30
2017-11-11T14:25:27.058Z,6.27
2017-11-11T14:27:55.692Z,6.24
2017-11-11T14:30:24.395Z,6.22
2017-11-11T14:32:53.072Z,6.18
2017-11-11T14:35:21.809Z,6.16
2017-11-11T14:37:50.452Z,6.15
2017-11-11T14:40:18.989Z,6.12
2017-11-11T14:42:47.627Z,6.11
2017-11-11T14:45:16.281Z,6.07
2017-11-11T14:47:44.972Z,6.05
2017-11-11T14:50:13.608Z,6.05
2017-11-11T14:52:42.319Z,6.05
2017-11-11T14:55:10.967Z,6.02
2017-11-11T14:57:39.743Z,5.99
2017-11-11T15:00:08.399Z,5.98
2017-11-11T15:02:37.087Z,5.96
2017-11-11T15:05:05.757Z,5.94
2017-11-11T15:07:34.196Z,5.90
2017-11-11T15:10:02.875Z,5.89
2017-11-11T15:12:31.508Z,5.88
2017-11-11T15:15:00.219Z,5.87
2017-11-11T15:17:29.140Z,5.85
2017-11-11T15:19:57.781Z,5.81
2017-11-11T15:22:26.471Z,5.80
2017-11-11T15:24:55.181Z,5.78
2017-11-11T15:27:23.841Z,5.72
2017-11-11T15:29:52.491Z,5.69
2017-11-11T15:32:21.189Z,5.63
2017-11-11T15:34:49.830Z,5.64
2017-11-11T15:37:18.476Z,5.61
2017-11-11T15:39:47.170Z,5.57
2017-11-11T15:42:16.164Z,5.54
2017-11-11T15:44:44.868Z,5.57
2017-11-11T15:47:13.509Z,5.57
2017-11-11T15:49:42.182Z,5.51
2017-11-11T15:52:10.689Z,5.51
2017-11-11T15:54:39.244Z,5.51
2017-11-11T15:57:07.784Z,5.50
2017-11-11T15:59:36.435Z,5.47
